Portada
METAR-TAF:

METAR-TAF

Aeroports :

Aeroport Internacional Amata Kabua

Majuro, Illes Marshall

latitud: 07-04N, longitud: 171-17E, altitud: 2 m

Observació

L'informe es va fer fa 6 hores i 4 minuts, a les 19:58 UTC
Vent 13 kt del Est/Nord-Est
Temperatura 29°C
Humitat 79%
Pressió 1012 hPa
Visibilitat: 24.1 km
Escasses núvols a una alçada de 1500 ft
Núvols disperses a una alçada de 5000 ft
Núvols disperses a una alçada de 12000 ft
Cel ennuvolat a una alçada de 30000 ft

METAR: PKMJ 261958Z 07013KT 15SM FEW015 SCT050 SCT120 BKN300 29/25 A2987 RMK LAST

Hora: 14:02 (02:02 UTC)

Pronòstic

L'informe es va fer fa 2 hores i 42 minuts, a les 23:20 UTC
Pronòstic vàlid del 27 a les 00 UTC al 27 a les 24 UTC
Vent 13 kt del Est/Nord-Est
Visibilitat: 10 km
Escasses núvols a una alçada de 1500 ft
Núvols disperses a una alçada de 5000 ft
xàfecs en les proximitats

TAF: PKMJ 262320Z 2700/2724 07013KT P6SM VCSH FEW015 SCT050

Observacions i pronòstics meteorològics de més de 4000 aeroports (METAR i TAF).

Les estacions disponibles són els punts grocs i vermells al mapa.

Posi el ratolí al punt desitjat per veure el nom de l'estació.

Feu clic per veure les observacions i els pronòstics meteorològics.

Per canviar el mapa: feu clic els botons verds amb una creu de color negre per apropar; al botó verd amb un guió per allunyar la imatge; o en les fletxes verdes per a mapes adjacents.


METAR-TAF: